Time;durP1;ratioP1;P1;durP2;ratioP2;P2;SDS_P1;SDS_P2;PMS_P1;PMS_P2;Temp;Humidity;BMP_temperature;BMP_pressure;BME280_temperature;BME280_humidity;BME280_pressure;Samples;Min_cycle;Max_cycle;Signal;HPM_P1;HPM_P2
2022/03/11 00:00:40;;;;;;;;;4.00;3.00;;;;;5.92;41.30;100269.47;5117788;28;8834;-65
2022/03/11 00:03:08;;;;;;;;;7.60;6.40;;;;;5.96;41.14;100270.16;5117607;28;8836;-67
2022/03/11 00:05:36;;;;;;;;;6.20;6.00;;;;;5.95;40.91;100264.03;5118101;28;8875;-65
2022/03/11 00:08:03;;;;;;;;;7.20;5.60;;;;;5.91;41.42;100262.47;5118096;28;8824;-65
2022/03/11 00:10:31;;;;;;;;;4.00;4.00;;;;;5.92;41.56;100268.63;5118437;28;8842;-65
2022/03/11 00:12:59;;;;;;;;;3.60;3.00;;;;;5.94;41.18;100257.03;5117960;28;8854;-65
2022/03/11 00:15:27;;;;;;;;;7.80;7.40;;;;;5.93;41.24;100257.13;5118115;28;8836;-65
2022/03/11 00:17:54;;;;;;;;;6.00;6.00;;;;;5.91;41.68;100256.38;5117560;28;8832;-65
2022/03/11 00:20:22;;;;;;;;;4.80;4.80;;;;;5.85;41.36;100254.06;5112699;28;8819;-65
2022/03/11 00:22:50;;;;;;;;;4.40;4.40;;;;;5.81;41.22;100257.78;5117600;28;8891;-65
2022/03/11 00:25:18;;;;;;;;;1.20;0.60;;;;;5.76;41.43;100255.38;5117568;28;8836;-65
2022/03/11 00:27:45;;;;;;;;;10.40;9.40;;;;;5.73;41.71;100257.31;5117528;28;9528;-67
2022/03/11 00:30:13;;;;;;;;;6.00;6.00;;;;;5.75;41.52;100252.81;5117456;28;8816;-65
2022/03/11 00:32:41;;;;;;;;;5.60;5.60;;;;;5.81;41.41;100255.16;5117497;28;8847;-65
2022/03/11 00:35:09;;;;;;;;;6.40;6.40;;;;;5.84;41.83;100255.00;5117771;28;8865;-66
2022/03/11 00:37:37;;;;;;;;;6.00;4.80;;;;;5.87;41.74;100255.69;5117711;28;8828;-65
2022/03/11 00:40:05;;;;;;;;;7.00;4.80;;;;;5.91;41.86;100262.47;5118125;28;8848;-64
2022/03/11 00:42:33;;;;;;;;;6.40;6.00;;;;;6.08;41.71;100251.81;5117198;28;8847;-65
2022/03/11 00:45:01;;;;;;;;;10.80;9.60;;;;;6.23;41.42;100255.41;5117883;28;8928;-65
2022/03/11 00:47:29;;;;;;;;;8.20;8.20;;;;;6.31;41.36;100251.34;5117178;28;8854;-65
2022/03/11 00:49:57;;;;;;;;;8.40;6.00;;;;;6.31;41.14;100250.53;5102099;28;8810;-65
2022/03/11 00:52:24;;;;;;;;;7.00;7.00;;;;;6.29;40.96;100252.41;5097232;28;8854;-65
2022/03/11 00:54:52;;;;;;;;;6.40;5.60;;;;;6.32;41.32;100257.50;5097166;28;9519;-65
2022/03/11 00:57:20;;;;;;;;;5.20;5.20;;;;;6.38;41.50;100254.53;5096889;28;8863;-65
2022/03/11 00:59:48;;;;;;;;;6.80;6.80;;;;;6.38;41.29;100254.53;5097210;28;8830;-65
2022/03/11 01:02:16;;;;;;;;;8.20;8.20;;;;;6.42;40.99;100253.38;5096781;28;8838;-65
2022/03/11 01:04:44;;;;;;;;;7.00;6.60;;;;;6.49;41.14;100254.75;5096602;28;8842;-65
2022/03/11 01:07:11;;;;;;;;;6.40;6.40;;;;;6.55;41.00;100249.97;5096686;28;8828;-65
2022/03/11 01:09:40;;;;;;;;;6.40;6.00;;;;;6.58;41.18;100243.63;5096965;28;8830;-65
2022/03/11 01:12:07;;;;;;;;;11.60;8.60;;;;;6.66;41.24;100250.16;5097299;28;8830;-65
2022/03/11 01:14:35;;;;;;;;;7.80;7.40;;;;;6.74;41.21;100242.63;5096682;28;8842;-65
2022/03/11 01:17:02;;;;;;;;;6.00;6.00;;;;;6.80;41.05;100238.75;5096760;28;8845;-64
2022/03/11 01:19:31;;;;;;;;;10.40;9.60;;;;;6.83;41.07;100235.94;5107426;28;8816;-67
2022/03/11 01:21:58;;;;;;;;;9.00;9.00;;;;;6.93;41.18;100232.66;5116914;28;9559;-65
2022/03/11 01:24:26;;;;;;;;;9.60;8.20;;;;;7.00;41.27;100239.28;5117042;28;9816;-65
2022/03/11 01:26:54;;;;;;;;;10.20;7.40;;;;;7.04;41.15;100226.72;5116884;28;8827;-64
2022/03/11 01:29:23;;;;;;;;;6.80;6.00;;;;;7.08;41.56;100222.94;5116797;28;9755;-65
2022/03/11 01:31:51;;;;;;;;;4.40;4.40;;;;;7.12;41.22;100214.69;5117016;28;8871;-65
2022/03/11 01:34:19;;;;;;;;;6.00;5.60;;;;;7.18;41.56;100216.97;5117372;28;8920;-64
2022/03/11 01:36:46;;;;;;;;;5.20;4.40;;;;;7.22;41.45;100218.50;5117257;28;8850;-65
2022/03/11 01:39:14;;;;;;;;;7.40;6.40;;;;;7.26;41.67;100219.13;5117389;28;8840;-65
2022/03/11 01:41:42;;;;;;;;;7.40;5.60;;;;;7.29;41.30;100216.31;5116529;28;8961;-65
2022/03/11 01:44:10;;;;;;;;;7.80;7.80;;;;;7.29;41.69;100205.72;5116986;28;8832;-66
2022/03/11 01:46:38;;;;;;;;;10.60;7.40;;;;;7.33;42.13;100210.75;5116483;28;8816;-65
2022/03/11 01:49:06;;;;;;;;;10.40;9.20;;;;;7.40;41.84;100201.47;5106515;28;8834;-66
2022/03/11 01:51:33;;;;;;;;;11.60;9.80;;;;;7.45;41.90;100206.47;5095829;28;8862;-66
2022/03/11 01:54:01;;;;;;;;;10.00;10.00;;;;;7.46;41.74;100210.81;5096525;28;8837;-65
2022/03/11 01:56:29;;;;;;;;;6.80;6.00;;;;;7.52;41.81;100197.19;5096455;28;8822;-65
2022/03/11 01:58:57;;;;;;;;;9.00;7.00;;;;;7.54;42.08;100201.44;5095248;28;8973;-65
2022/03/11 02:01:24;;;;;;;;;6.00;4.00;;;;;7.51;41.77;100195.50;5095304;28;8833;-65
2022/03/11 02:03:52;;;;;;;;;8.60;8.60;;;;;7.46;41.92;100192.28;5095814;28;8861;-65
2022/03/11 02:06:20;;;;;;;;;6.20;5.20;;;;;7.45;42.18;100190.56;5095637;28;8833;-65
2022/03/11 02:08:48;;;;;;;;;7.00;7.00;;;;;7.44;42.04;100188.88;5095126;28;8830;-65
2022/03/11 02:11:16;;;;;;;;;6.80;6.00;;;;;7.41;42.11;100199.66;5095163;28;8830;-65
2022/03/11 02:13:43;;;;;;;;;2.20;0.40;;;;;7.38;42.35;100194.56;5095689;28;8845;-65
2022/03/11 02:16:11;;;;;;;;;6.80;6.80;;;;;7.35;42.50;100189.47;5095876;28;8904;-65
2022/03/11 02:18:40;;;;;;;;;6.60;6.00;;;;;7.34;42.85;100185.13;5099229;28;8820;-65
2022/03/11 02:21:14;;;;;;;;;18.60;17.60;;;;;7.36;42.71;100186.69;5129528;27;13352;-65
2022/03/11 02:23:42;;;;;;;;;11.20;10.40;;;;;7.46;42.64;100189.63;5112261;28;8816;-66
2022/03/11 02:26:10;;;;;;;;;7.20;5.80;;;;;7.53;43.06;100178.56;5112829;28;8839;-65
2022/03/11 02:28:38;;;;;;;;;10.00;10.00;;;;;7.58;42.90;100175.63;5111623;28;8971;-67
2022/03/11 02:31:05;;;;;;;;;9.80;9.80;;;;;7.58;43.00;100184.41;5112774;28;8819;-66
2022/03/11 02:33:33;;;;;;;;;11.20;9.80;;;;;7.58;42.90;100175.63;5113119;28;9537;-66
2022/03/11 02:36:01;;;;;;;;;6.00;6.00;;;;;7.59;42.92;100174.66;5112254;28;8832;-65
2022/03/11 02:38:29;;;;;;;;;8.60;8.60;;;;;7.55;43.26;100170.50;5114806;27;8900;-66
2022/03/11 02:40:56;;;;;;;;;10.00;7.00;;;;;7.53;43.36;100172.41;5132670;27;8891;-66
2022/03/11 02:43:24;;;;;;;;;10.00;8.60;;;;;7.49;43.43;100170.91;5133127;27;8852;-66
2022/03/11 02:45:52;;;;;;;;;9.60;7.00;;;;;7.43;43.38;100174.75;5132657;27;9540;-65
2022/03/11 02:48:20;;;;;;;;;10.40;10.20;;;;;7.37;44.08;100167.22;5133322;27;8833;-66
2022/03/11 02:50:48;;;;;;;;;3.00;1.80;;;;;7.31;44.22;100167.59;5132640;27;8861;-65
2022/03/11 02:53:15;;;;;;;;;9.00;8.80;;;;;7.27;44.05;100168.72;5132656;27;8871;-66
2022/03/11 02:55:43;;;;;;;;;10.80;10.00;;;;;7.23;44.10;100161.94;5132654;27;8829;-66
2022/03/11 02:58:11;;;;;;;;;11.20;9.40;;;;;7.19;43.82;100167.53;5132267;27;9575;-66
2022/03/11 03:00:39;;;;;;;;;10.00;10.00;;;;;7.14;43.89;100166.97;5132619;27;8830;-65
2022/03/11 03:03:06;;;;;;;;;7.40;6.80;;;;;7.11;44.31;100162.69;5131782;27;8867;-66
2022/03/11 03:05:34;;;;;;;;;4.00;4.00;;;;;7.09;44.56;100164.59;5132449;27;8883;-66
2022/03/11 03:08:02;;;;;;;;;12.40;12.00;;;;;7.05;44.47;100157.78;5132254;27;8853;-66
2022/03/11 03:10:30;;;;;;;;;6.80;6.00;;;;;7.03;44.13;100154.38;5112566;28;8912;-65
2022/03/11 03:12:58;;;;;;;;;11.20;9.00;;;;;7.03;44.40;100153.50;5112349;28;8836;-66
2022/03/11 03:15:25;;;;;;;;;13.80;11.20;;;;;7.02;44.37;100151.81;5111620;28;8844;-66
2022/03/11 03:17:53;;;;;;;;;7.00;7.00;;;;;7.04;44.18;100155.25;5111636;28;8866;-65
2022/03/11 03:20:21;;;;;;;;;10.00;9.60;;;;;7.01;43.97;100152.75;5110724;28;8874;-65
2022/03/11 03:22:49;;;;;;;;;12.80;11.20;;;;;6.98;44.44;100152.97;5110720;28;8837;-65
2022/03/11 03:25:16;;;;;;;;;7.00;7.00;;;;;6.94;44.55;100156.72;5111675;28;8837;-65
2022/03/11 03:27:45;;;;;;;;;13.40;9.60;;;;;6.87;44.70;100150.97;5110489;28;8822;-65
2022/03/11 03:30:13;;;;;;;;;10.00;9.60;;;;;6.84;44.70;100160.91;5109175;28;9530;-66
2022/03/11 03:32:41;;;;;;;;;9.00;7.80;;;;;6.78;44.30;100150.69;5096983;28;8830;-66
2022/03/11 03:35:09;;;;;;;;;8.20;6.60;;;;;6.75;44.60;100151.72;5097337;28;8834;-66
2022/03/11 03:37:37;;;;;;;;;11.60;9.80;;;;;6.72;44.94;100153.69;5111478;28;8940;-66
2022/03/11 03:40:04;;;;;;;;;10.20;10.20;;;;;6.68;44.85;100160.97;5099356;28;8858;-66
2022/03/11 03:42:32;;;;;;;;;6.00;4.00;;;;;6.63;44.55;100148.97;5097307;28;8842;-65
2022/03/11 03:45:00;;;;;;;;;7.00;7.00;;;;;6.57;44.77;100150.19;5097494;28;8818;-66
2022/03/11 03:47:28;;;;;;;;;12.00;9.60;;;;;6.52;44.88;100143.47;5097443;28;8872;-67
2022/03/11 03:49:55;;;;;;;;;9.60;9.20;;;;;6.48;45.33;100149.88;5097448;28;8838;-70
2022/03/11 03:52:23;;;;;;;;;9.60;9.00;;;;;6.46;44.84;100157.91;5097009;28;8822;-65
2022/03/11 03:54:50;;;;;;;;;6.80;6.60;;;;;6.43;45.06;100149.28;5097309;28;9511;-66
2022/03/11 03:57:19;;;;;;;;;4.00;4.00;;;;;6.40;44.89;100160.06;5097076;28;8830;-66
2022/03/11 03:59:46;;;;;;;;;11.80;10.20;;;;;6.39;44.74;100158.38;5096986;28;8833;-66
2022/03/11 04:02:14;;;;;;;;;6.60;6.20;;;;;6.42;44.98;100153.75;5097186;28;8920;-65
2022/03/11 04:04:42;;;;;;;;;5.60;4.00;;;;;6.40;44.80;100150.34;5097061;28;8915;-66
2022/03/11 04:07:10;;;;;;;;;7.80;7.00;;;;;6.40;45.21;100154.78;5106556;28;8842;-66
2022/03/11 04:09:37;;;;;;;;;9.40;8.20;;;;;6.39;45.17;100140.72;5117577;28;8848;-66
2022/03/11 04:12:05;;;;;;;;;9.40;9.00;;;;;6.37;45.21;100153.16;5117359;28;8808;-66
2022/03/11 04:14:32;;;;;;;;;12.00;9.40;;;;;6.35;45.18;100146.25;5117004;28;8844;-66
2022/03/11 04:17:00;;;;;;;;;9.60;9.60;;;;;6.37;45.45;100142.59;5116754;28;8850;-65
2022/03/11 04:19:29;;;;;;;;;10.00;9.00;;;;;6.36;44.90;100143.53;5116298;28;8867;-66
2022/03/11 04:21:56;;;;;;;;;11.60;10.40;;;;;6.32;45.02;100142.03;5117103;28;8841;-65
2022/03/11 04:24:24;;;;;;;;;11.20;10.80;;;;;6.32;45.22;100141.16;5115887;28;8840;-66
2022/03/11 04:26:52;;;;;;;;;9.60;7.00;;;;;6.32;45.13;100147.31;5115019;28;8847;-66
2022/03/11 04:29:20;;;;;;;;;10.00;10.00;;;;;6.30;45.27;100143.06;5116599;28;8824;-65
2022/03/11 04:31:48;;;;;;;;;11.60;10.40;;;;;6.29;45.35;100136.06;5116408;28;8844;-65
2022/03/11 04:34:15;;;;;;;;;9.40;9.00;;;;;6.30;45.55;100127.19;5116710;28;8920;-65
2022/03/11 04:36:45;;;;;;;;;10.00;9.00;;;;;6.31;45.58;100136.81;5108798;28;8833;-66
2022/03/11 04:39:14;;;;;;;;;9.40;7.00;;;;;6.31;45.17;100126.25;5095598;28;8822;-65
2022/03/11 04:41:42;;;;;;;;;9.40;9.20;;;;;6.33;45.25;100122.56;5095533;28;9548;-65
2022/03/11 04:44:10;;;;;;;;;8.00;8.00;;;;;6.34;44.89;100120.75;5094750;28;8842;-65
2022/03/11 04:46:38;;;;;;;;;11.60;10.80;;;;;6.29;45.56;100121.03;5095720;28;8874;-65
2022/03/11 04:49:06;;;;;;;;;12.00;12.00;;;;;6.26;45.43;100130.94;5096225;28;8838;-66
2022/03/11 04:51:33;;;;;;;;;9.00;9.00;;;;;6.23;45.36;100131.13;5096257;28;8822;-65
2022/03/11 04:54:01;;;;;;;;;11.40;9.40;;;;;6.17;45.83;100127.06;5095665;28;9533;-67
2022/03/11 04:56:29;;;;;;;;;12.00;11.20;;;;;6.16;45.77;100130.63;5095303;28;8838;-66
2022/03/11 04:58:58;;;;;;;;;9.60;7.80;;;;;6.11;45.63;100132.72;5095119;28;9516;-65
2022/03/11 05:01:25;;;;;;;;;7.00;7.00;;;;;6.04;45.37;100131.34;5095664;28;9547;-65
2022/03/11 05:03:53;;;;;;;;;9.00;8.20;;;;;6.00;45.86;100126.34;5095659;28;8841;-65
2022/03/11 05:06:21;;;;;;;;;6.60;4.80;;;;;5.94;46.24;100127.56;5099088;28;8844;-65
2022/03/11 05:08:49;;;;;;;;;7.40;7.40;;;;;5.91;46.31;100134.81;5115839;28;8844;-65
2022/03/11 05:11:16;;;;;;;;;10.00;9.00;;;;;5.83;45.89;100127.31;5115747;28;8828;-66
2022/03/11 05:13:44;;;;;;;;;9.40;9.00;;;;;5.73;45.79;100139.31;5116060;28;8815;-66
2022/03/11 05:16:12;;;;;;;;;9.80;9.80;;;;;5.68;45.87;100137.88;5115858;28;8831;-65
2022/03/11 05:18:45;;;;;;;;;7.00;7.00;;;;;5.70;46.29;100141.28;5115713;28;8889;-65
2022/03/11 05:21:12;;;;;;;;;7.40;6.80;;;;;5.72;45.86;100134.97;5115475;28;8820;-65
2022/03/11 05:23:40;;;;;;;;;12.60;11.60;;;;;5.77;45.77;100140.00;5115216;28;8819;-66
2022/03/11 05:26:24;;;;;;;;;12.40;9.80;;;;;5.76;46.02;100138.28;5116127;28;8840;-65
2022/03/11 05:28:53;;;;;;;;;10.00;9.00;;;;;5.71;45.75;100142.97;5115382;28;8831;-67
2022/03/11 05:31:20;;;;;;;;;12.80;9.80;;;;;5.65;45.75;100130.09;5115368;28;8958;-66
2022/03/11 05:33:48;;;;;;;;;9.40;9.00;;;;;5.66;45.77;100129.16;5115147;28;8847;-66
2022/03/11 05:36:16;;;;;;;;;10.60;7.00;;;;;5.65;46.04;100132.75;5110591;28;8829;-66
2022/03/11 05:38:44;;;;;;;;;5.20;3.00;;;;;5.59;46.38;100127.81;5094402;28;8830;-66
2022/03/11 05:41:12;;;;;;;;;6.80;5.60;;;;;5.61;45.86;100126.78;5094420;28;8872;-66
2022/03/11 05:43:40;;;;;;;;;9.40;9.20;;;;;5.66;46.61;100131.81;5093753;28;8833;-65
2022/03/11 05:46:08;;;;;;;;;15.00;11.20;;;;;5.70;46.21;100136.81;5095010;28;8834;-69
2022/03/11 05:48:36;;;;;;;;;10.40;9.20;;;;;5.73;45.86;100128.75;5094870;28;8968;-66
2022/03/11 05:51:06;;;;;;;;;12.60;7.60;;;;;5.72;46.21;100129.69;5095760;28;8842;-66
2022/03/11 05:53:34;;;;;;;;;13.00;12.80;;;;;5.73;45.92;100134.03;5094708;28;8833;-66
2022/03/11 05:56:02;;;;;;;;;9.00;9.00;;;;;5.73;45.93;100136.66;5094924;28;8868;-67
2022/03/11 05:58:30;;;;;;;;;12.00;9.20;;;;;5.73;45.65;100128.75;5094529;28;8826;-67
2022/03/11 06:00:57;;;;;;;;;13.40;9.60;;;;;5.75;46.18;100126.00;5094056;28;8865;-66
2022/03/11 06:03:25;;;;;;;;;10.00;9.20;;;;;5.75;45.80;100123.34;5094267;28;8866;-66
2022/03/11 06:05:53;;;;;;;;;11.60;9.80;;;;;5.68;45.64;100122.03;5110882;28;8815;-66
2022/03/11 06:08:22;;;;;;;;;11.20;10.00;;;;;5.65;45.64;100120.41;5114299;28;8851;-66
2022/03/11 06:10:50;;;;;;;;;12.80;12.40;;;;;5.65;46.20;100122.19;5113908;28;8819;-66
2022/03/11 06:13:18;;;;;;;;;9.00;8.20;;;;;5.65;45.61;100123.06;5113761;28;8851;-67
2022/03/11 06:15:46;;;;;;;;;15.80;10.00;;;;;5.65;45.80;100122.19;5111523;28;8836;-66
2022/03/11 06:18:17;;;;;;;;;14.20;12.80;;;;;5.64;45.83;100121.34;5112099;28;9202;-66
2022/03/11 06:20:45;;;;;;;;;12.50;12.50;;;;;5.63;45.45;100124.06;5110652;28;8840;-66
2022/03/11 06:23:14;;;;;;;;;11.20;10.00;;;;;5.63;45.47;100121.44;5110544;28;8855;-67
2022/03/11 06:25:42;;;;;;;;;6.80;6.00;;;;;5.62;46.00;100125.00;5111708;28;8879;-66
2022/03/11 06:28:10;;;;;;;;;7.80;6.80;;;;;5.61;45.80;100116.22;5112136;28;8843;-66
2022/03/11 06:30:38;;;;;;;;;12.20;9.80;;;;;5.62;45.49;100125.00;5112937;28;8851;-66
2022/03/11 06:33:07;;;;;;;;;10.40;9.00;;;;;5.68;45.60;100127.31;5112605;28;8840;-67
2022/03/11 06:35:34;;;;;;;;;5.00;4.40;;;;;5.74;45.29;100121.66;5111478;28;8856;-66
2022/03/11 06:38:05;;;;;;;;;12.40;10.60;;;;;5.81;44.98;100123.03;5111301;28;8838;-66
2022/03/11 06:40:33;;;;;;;;;6.00;5.60;;;;;5.87;44.99;100120.06;5110957;28;8866;-66
2022/03/11 06:43:01;;;;;;;;;9.80;9.60;;;;;5.94;44.75;100122.28;5111548;28;8856;-66
2022/03/11 06:45:28;;;;;;;;;12.00;10.00;;;;;6.02;44.50;100116.53;5110985;28;8889;-72
2022/03/11 06:47:56;;;;;;;;;6.60;3.80;;;;;6.07;44.69;100125.03;5111544;28;8832;-66
2022/03/11 06:50:25;;;;;;;;;12.60;10.00;;;;;6.11;44.44;100126.56;5112058;28;8843;-66
2022/03/11 06:52:52;;;;;;;;;9.40;6.60;;;;;6.14;44.76;100118.47;5111856;28;8824;-66
2022/03/11 06:55:20;;;;;;;;;14.40;12.00;;;;;6.16;44.79;100113.94;5111521;28;8976;-66
2022/03/11 06:57:48;;;;;;;;;8.60;7.00;;;;;6.20;44.54;100116.28;5110241;28;8820;-66
2022/03/11 07:00:15;;;;;;;;;4.80;3.00;;;;;6.24;44.34;100106.38;5109707;28;8831;-66
2022/03/11 07:02:43;;;;;;;;;15.40;13.80;;;;;6.28;44.42;100115.81;5110208;28;8850;-66
2022/03/11 07:05:11;;;;;;;;;13.40;12.20;;;;;6.32;44.56;100104.13;5110287;28;8824;-66
2022/03/11 07:07:39;;;;;;;;;12.60;11.20;;;;;6.32;44.55;100094.44;5111888;28;8832;-66
2022/03/11 07:10:06;;;;;;;;;12.40;9.20;;;;;6.38;44.25;100095.84;5114309;28;8836;-67
2022/03/11 07:12:34;;;;;;;;;8.20;7.80;;;;;6.42;44.17;100095.56;5114893;28;8839;-66
2022/03/11 07:15:02;;;;;;;;;9.80;9.80;;;;;6.46;44.08;100089.13;5115160;28;8966;-66
2022/03/11 07:17:30;;;;;;;;;6.80;4.80;;;;;6.52;44.09;100095.88;5114857;28;8835;-66
2022/03/11 07:19:58;;;;;;;;;16.00;15.00;;;;;6.56;44.39;100097.38;5114902;28;8963;-66
2022/03/11 07:22:26;;;;;;;;;11.40;10.00;;;;;6.62;43.66;100100.50;5115976;28;8987;-66
2022/03/11 07:24:59;;;;;;;;;7.40;6.80;;;;;6.68;43.59;100102.75;5115190;28;8852;-66
2022/03/11 07:27:27;;;;;;;;;16.00;14.20;;;;;6.75;43.50;100105.91;5115772;28;9533;-66
2022/03/11 07:29:56;;;;;;;;;12.40;9.80;;;;;6.80;43.79;100104.66;5114076;28;8835;-66
2022/03/11 07:32:24;;;;;;;;;9.60;9.60;;;;;6.88;43.85;100110.31;5114286;28;8843;-66
2022/03/11 07:34:52;;;;;;;;;15.40;14.20;;;;;6.98;43.46;100110.63;5114787;28;8845;-66
2022/03/11 07:37:21;;;;;;;;;9.80;8.80;;;;;7.11;43.43;100108.88;5114522;28;9622;-66
2022/03/11 07:39:49;;;;;;;;;12.80;12.20;;;;;7.30;43.05;100099.69;5114107;28;8970;-66
2022/03/11 07:42:17;;;;;;;;;13.40;12.20;;;;;7.52;42.97;100107.97;5110011;28;8847;-66
2022/03/11 07:44:44;;;;;;;;;11.60;11.20;;;;;7.78;42.61;100105.31;5114891;28;8835;-66
2022/03/11 07:47:12;;;;;;;;;8.20;7.40;;;;;8.11;42.55;100097.78;5114739;28;8993;-66
2022/03/11 07:49:40;;;;;;;;;14.60;14.20;;;;;8.44;42.10;100095.50;5114813;28;8840;-66
2022/03/11 07:52:14;;;;;;;;;9.80;9.40;;;;;8.76;41.66;100080.88;5113739;28;8912;-66
2022/03/11 07:54:42;;;;;;;;;13.80;13.40;;;;;9.01;41.84;100080.84;5114862;28;8855;-67
2022/03/11 07:57:10;;;;;;;;;15.40;13.00;;;;;9.17;41.06;100081.44;5109885;28;8866;-66
2022/03/11 07:59:40;;;;;;;;;11.80;9.40;;;;;9.27;41.23;100081.63;5113900;28;8877;-64
2022/03/11 08:02:09;;;;;;;;;11.20;10.60;;;;;9.32;41.06;100085.66;5112631;28;8837;-66
2022/03/11 08:04:37;;;;;;;;;12.00;10.00;;;;;9.39;41.05;100088.72;5113702;28;9665;-66
2022/03/11 08:07:09;;;;;;;;;17.20;13.80;;;;;9.49;40.91;100082.63;5113248;28;8843;-66
2022/03/11 08:09:38;;;;;;;;;13.00;11.00;;;;;9.61;40.61;100083.53;5111995;28;9214;-66
2022/03/11 08:12:06;;;;;;;;;13.00;11.20;;;;;9.76;40.67;100091.22;5112213;28;8839;-66
2022/03/11 08:14:33;;;;;;;;;15.40;14.20;;;;;9.92;40.42;100094.44;5111708;28;8832;-66
2022/03/11 08:17:01;;;;;;;;;13.80;13.40;;;;;10.02;39.77;100074.16;5111263;28;8835;-66
2022/03/11 08:19:29;;;;;;;;;15.60;15.00;;;;;9.99;39.77;100085.06;5111819;28;8865;-66
2022/03/11 08:21:57;;;;;;;;;13.40;12.40;;;;;9.94;39.76;100094.34;5112186;28;8848;-66
2022/03/11 08:24:26;;;;;;;;;19.60;16.40;;;;;9.87;39.74;100093.09;5112887;28;9505;-66
2022/03/11 08:26:54;;;;;;;;;12.40;11.20;;;;;9.85;39.80;100090.53;5112881;28;8835;-66
2022/03/11 08:29:23;;;;;;;;;14.80;13.60;;;;;9.85;39.65;100089.69;5111599;28;8836;-67
2022/03/11 08:31:51;;;;;;;;;14.60;12.20;;;;;9.87;39.25;100083.28;5111210;28;9489;-66
2022/03/11 08:34:19;;;;;;;;;13.00;12.00;;;;;9.89;38.96;100081.38;5111454;28;8874;-66
2022/03/11 08:37:07;;;;;;;;;19.00;15.80;;;;;9.90;39.39;100090.19;5110663;28;8856;-66
2022/03/11 08:39:34;;;;;;;;;9.80;8.20;;;;;9.90;39.15;100076.91;5110340;28;9531;-66
2022/03/11 08:42:05;;;;;;;;;10.20;9.00;;;;;9.91;39.21;100078.59;5109142;28;8851;-66
2022/03/11 08:44:33;;;;;;;;;17.20;14.40;;;;;10.02;38.77;100082.16;5110866;28;8843;-66
2022/03/11 08:47:00;;;;;;;;;16.80;15.40;;;;;10.34;38.77;100077.94;5110404;28;8832;-66
2022/03/11 08:49:28;;;;;;;;;10.00;10.00;;;;;10.65;38.38;100066.63;5109634;28;8858;-66
2022/03/11 08:51:56;;;;;;;;;10.80;7.80;;;;;10.96;37.83;100060.59;5109934;28;8835;-66
2022/03/11 08:54:25;;;;;;;;;11.60;10.00;;;;;11.24;37.35;100054.72;5111045;28;8835;-66
2022/03/11 08:56:54;;;;;;;;;13.50;12.50;;;;;11.48;37.44;100060.75;5111161;28;8831;-66
2022/03/11 08:59:22;;;;;;;;;6.50;5.50;;;;;11.80;36.71;100055.47;5111276;28;8958;-66
2022/03/11 09:01:50;;;;;;;;;14.50;14.00;;;;;12.03;36.90;100057.94;5110752;28;8844;-66
2022/03/11 09:04:19;;;;;;;;;20.50;16.50;;;;;12.21;36.29;100043.88;5111480;28;8840;-64
2022/03/11 09:06:47;;;;;;;;;15.00;12.50;;;;;12.26;36.49;100046.16;5111185;28;9608;-64
2022/03/11 09:09:15;;;;;;;;;9.75;9.00;;;;;12.32;35.95;100041.13;5111588;28;8836;-64
2022/03/11 09:11:43;;;;;;;;;13.25;12.00;;;;;12.38;36.09;100037.94;5111353;28;9161;-64
2022/03/11 09:14:11;;;;;;;;;12.00;11.00;;;;;12.38;36.61;100029.09;5111082;28;8840;-64
2022/03/11 09:16:39;;;;;;;;;10.75;9.25;;;;;12.36;36.53;100031.03;5112603;28;8892;-64
2022/03/11 09:19:08;;;;;;;;;16.50;15.75;;;;;12.32;36.75;100025.09;5112539;28;8840;-64
2022/03/11 09:21:40;;;;;;;;;14.50;13.50;;;;;12.28;36.52;100020.16;5109209;28;8870;-64
2022/03/11 09:24:08;;;;;;;;;14.50;12.50;;;;;12.23;36.55;100014.38;5111623;28;8863;-64
2022/03/11 09:26:36;;;;;;;;;19.00;15.25;;;;;12.21;36.11;100022.53;5112115;28;8847;-64
2022/03/11 09:29:20;;;;;;;;;9.25;8.00;;;;;12.15;36.61;100016.88;5109036;28;8977;-64
2022/03/11 09:31:48;;;;;;;;;17.00;15.25;;;;;12.03;36.00;100007.22;5111007;28;9510;-64
2022/03/11 09:34:16;;;;;;;;;3.50;3.00;;;;;11.93;36.30;99999.13;5111923;28;8824;-63
2022/03/11 09:36:48;;;;;;;;;15.25;13.50;;;;;11.90;36.09;100000.38;5110883;28;9301;-64
2022/03/11 09:39:16;;;;;;;;;11.50;9.75;;;;;11.89;36.30;99999.53;5112254;28;9547;-64
2022/03/11 09:41:43;;;;;;;;;14.25;12.50;;;;;11.89;36.43;99994.19;5110879;28;8831;-64
2022/03/11 09:44:11;;;;;;;;;10.50;10.00;;;;;11.87;36.08;99998.81;5111241;28;8832;-64
2022/03/11 09:46:39;;;;;;;;;7.00;6.00;;;;;11.90;36.29;99993.19;5110301;28;8843;-64
2022/03/11 09:49:07;;;;;;;;;9.00;9.00;;;;;11.95;35.97;99985.66;5109130;28;8843;-63
2022/03/11 09:51:34;;;;;;;;;15.75;13.00;;;;;12.01;35.71;99982.47;5107965;28;8923;-64
2022/03/11 09:54:02;;;;;;;;;13.00;12.75;;;;;12.12;36.16;99979.72;5109491;28;8950;-64
2022/03/11 09:56:30;;;;;;;;;18.50;16.75;;;;;12.24;35.61;99979.53;5109689;28;8843;-63
2022/03/11 09:58:58;;;;;;;;;15.50;13.50;;;;;12.41;35.86;99986.09;5108500;28;8836;-63
2022/03/11 10:01:26;;;;;;;;;17.00;15.25;;;;;12.61;34.83;99979.88;5109064;28;9481;-63
2022/03/11 10:03:54;;;;;;;;;13.00;12.75;;;;;12.80;34.85;99979.94;5108387;28;8970;-63
2022/03/11 10:06:21;;;;;;;;;18.00;16.00;;;;;13.00;34.56;99968.38;5107667;28;8861;-64
2022/03/11 10:08:55;;;;;;;;;12.75;12.25;;;;;13.34;34.65;99972.38;5108439;28;8863;-66
2022/03/11 10:11:23;;;;;;;;;9.25;9.25;;;;;13.85;33.90;99962.25;5109637;28;8862;-66
2022/03/11 10:13:50;;;;;;;;;15.00;15.00;;;;;14.64;32.82;99954.63;5109745;28;8964;-66
2022/03/11 10:16:18;;;;;;;;;16.00;12.50;;;;;15.47;32.00;99941.06;5109540;28;8857;-66
2022/03/11 10:18:46;;;;;;;;;15.50;14.50;;;;;16.38;30.48;99936.94;5110753;28;8939;-64
2022/03/11 10:21:14;;;;;;;;;15.00;12.50;;;;;17.13;30.06;99943.19;5109373;28;8854;-63
2022/03/11 10:23:42;;;;;;;;;8.50;7.00;;;;;17.86;29.70;99934.25;5109707;28;9497;-64
2022/03/11 10:26:10;;;;;;;;;15.00;13.50;;;;;18.55;29.30;99926.44;5110406;28;8867;-64
2022/03/11 10:28:37;;;;;;;;;11.00;9.50;;;;;19.23;27.73;99923.97;5110301;28;8841;-64
2022/03/11 10:31:05;;;;;;;;;19.00;17.00;;;;;19.74;27.47;99926.00;5109452;28;8904;-64
2022/03/11 10:33:33;;;;;;;;;18.00;15.00;;;;;20.21;27.04;99915.81;5109711;28;9489;-64
2022/03/11 10:36:01;;;;;;;;;19.50;15.00;;;;;20.68;26.75;99914.47;5108843;28;8928;-64
2022/03/11 10:38:30;;;;;;;;;13.50;13.00;;;;;21.13;26.40;99919.69;5109541;28;8866;-64
2022/03/11 10:40:58;;;;;;;;;21.75;19.25;;;;;21.33;26.20;99924.31;5109302;28;8832;-64
2022/03/11 10:43:26;;;;;;;;;15.60;13.00;;;;;21.56;25.72;99916.03;5112724;28;8837;-64
2022/03/11 10:45:54;;;;;;;;;11.60;11.20;;;;;21.79;25.58;99914.81;5112161;28;8833;-64
2022/03/11 10:48:22;;;;;;;;;22.20;20.80;;;;;21.87;25.20;99919.28;5112088;28;8840;-64
2022/03/11 10:50:50;;;;;;;;;16.40;15.20;;;;;21.88;25.05;99918.25;5112024;28;8871;-64
2022/03/11 10:53:17;;;;;;;;;17.00;16.00;;;;;22.00;25.17;99916.72;5112577;28;8840;-64
2022/03/11 10:55:45;;;;;;;;;16.20;13.40;;;;;22.25;24.72;99918.78;5113091;28;8878;-64
2022/03/11 10:58:16;;;;;;;;;21.40;20.00;;;;;22.70;24.59;99909.31;5112636;28;8971;-64
2022/03/11 11:00:44;;;;;;;;;20.20;17.80;;;;;22.94;24.32;99904.22;5112189;28;8832;-64
2022/03/11 11:03:14;;;;;;;;;16.00;11.40;;;;;23.07;24.17;99892.56;5112024;28;8819;-64
2022/03/11 11:05:42;;;;;;;;;17.20;14.60;;;;;22.93;23.52;99912.56;5114007;28;8850;-64
2022/03/11 11:08:10;;;;;;;;;21.80;18.00;;;;;22.86;24.14;99908.97;5113456;28;8843;-64
2022/03/11 11:10:39;;;;;;;;;21.20;20.20;;;;;23.02;23.91;99906.78;5111379;28;8846;-64
2022/03/11 11:13:09;;;;;;;;;11.60;11.00;;;;;23.38;23.33;99896.47;5112741;28;8993;-64
2022/03/11 11:15:37;;;;;;;;;18.80;18.40;;;;;23.85;23.12;99888.22;5113730;28;9488;-64
2022/03/11 11:18:05;;;;;;;;;12.40;11.80;;;;;23.94;23.10;99894.28;5112895;28;8858;-64
2022/03/11 11:20:33;;;;;;;;;18.40;16.60;;;;;23.73;23.45;99900.72;5112098;28;8855;-64
2022/03/11 11:23:00;;;;;;;;;18.20;17.20;;;;;23.72;22.96;99893.63;5111095;28;8881;-64
2022/03/11 11:25:28;;;;;;;;;17.80;15.20;;;;;23.86;23.47;99889.06;5111804;28;8836;-64
2022/03/11 11:27:57;;;;;;;;;15.40;14.20;;;;;23.99;23.29;99881.75;5111568;28;8848;-64
2022/03/11 11:30:24;;;;;;;;;18.60;16.80;;;;;24.01;22.99;99892.41;5110970;28;8835;-64
2022/03/11 11:32:55;;;;;;;;;16.20;15.40;;;;;24.14;23.02;99884.25;5111130;28;8835;-64
2022/03/11 11:35:23;;;;;;;;;18.20;15.60;;;;;24.18;23.04;99882.78;5111764;28;8840;-64